createdAt,value
2018-03-24T00:07:37.976Z,84.00
2018-03-24T00:10:05.504Z,84.04
2018-03-24T00:12:33.020Z,84.13
2018-03-24T00:15:00.573Z,84.19
2018-03-24T00:17:33.250Z,84.24
2018-03-24T00:20:05.767Z,84.28
2018-03-24T00:22:37.490Z,84.35
2018-03-24T00:25:04.965Z,84.42
2018-03-24T00:27:32.438Z,84.48
2018-03-24T00:29:59.945Z,84.51
2018-03-24T00:32:27.415Z,84.58
2018-03-24T00:34:55.309Z,84.63
2018-03-24T00:37:23.131Z,84.71
2018-03-24T00:39:50.876Z,84.79
2018-03-24T00:42:18.372Z,84.85
2018-03-24T00:44:45.847Z,84.90
2018-03-24T00:47:13.343Z,84.92
2018-03-24T00:49:40.823Z,84.97
2018-03-24T00:52:10.444Z,85.00
2018-03-24T00:54:39.544Z,85.06
2018-03-24T00:57:07.111Z,85.10
2018-03-24T00:59:34.592Z,85.17
2018-03-24T01:02:02.104Z,85.22
2018-03-24T01:04:29.600Z,85.24
2018-03-24T01:06:57.096Z,85.29
2018-03-24T01:09:26.414Z,85.33
2018-03-24T01:11:54.867Z,85.36
2018-03-24T01:14:25.565Z,85.39
2018-03-24T01:16:53.028Z,85.42
2018-03-24T01:19:20.513Z,85.46
2018-03-24T01:21:47.987Z,85.51
2018-03-24T01:24:15.481Z,85.55
2018-03-24T01:26:43.003Z,85.61
2018-03-24T01:29:11.349Z,85.66
2018-03-24T01:31:39.078Z,85.70
2018-03-24T01:34:06.563Z,85.74
2018-03-24T01:36:34.068Z,85.77
2018-03-24T01:39:01.560Z,85.78
2018-03-24T01:41:29.061Z,85.79
2018-03-24T01:43:57.759Z,85.82
2018-03-24T01:46:26.878Z,85.84
2018-03-24T01:48:55.099Z,85.85
2018-03-24T01:51:22.592Z,85.87
2018-03-24T01:53:53.831Z,85.90
2018-03-24T01:56:21.323Z,85.90
2018-03-24T01:58:48.798Z,85.90
2018-03-24T02:01:18.388Z,85.90
2018-03-24T02:03:46.727Z,85.92
2018-03-24T02:06:15.359Z,85.94
2018-03-24T02:08:42.847Z,85.96
2018-03-24T02:11:10.307Z,85.97
2018-03-24T02:13:37.816Z,85.97
2018-03-24T02:16:05.320Z,85.98
2018-03-24T02:18:35.163Z,85.97
2018-03-24T02:21:14.608Z,85.96
2018-03-24T02:23:43.335Z,85.94
2018-03-24T02:26:10.848Z,85.93
2018-03-24T02:28:38.337Z,85.91
2018-03-24T02:31:05.855Z,85.89
2018-03-24T02:33:33.331Z,85.87
2018-03-24T02:36:03.397Z,85.83
2018-03-24T02:38:31.388Z,85.82
2018-03-24T02:40:59.061Z,85.78
2018-03-24T02:43:26.557Z,85.75
2018-03-24T02:45:54.061Z,85.73
2018-03-24T02:48:21.547Z,85.69
2018-03-24T02:50:49.025Z,85.65
2018-03-24T02:53:18.308Z,85.61
2018-03-24T02:55:49.692Z,85.57
2018-03-24T02:58:17.664Z,85.52
2018-03-24T03:00:47.649Z,85.47
2018-03-24T03:03:16.289Z,85.43
2018-03-24T03:05:43.757Z,85.39
2018-03-24T03:08:11.250Z,85.36
2018-03-24T03:10:41.289Z,85.33
2018-03-24T03:13:11.187Z,85.30
2018-03-24T03:15:38.932Z,85.25
2018-03-24T03:18:07.397Z,85.22
2018-03-24T03:20:34.885Z,85.18
2018-03-24T03:23:02.385Z,85.16
2018-03-24T03:25:29.859Z,85.13
2018-03-24T03:28:02.319Z,85.10
2018-03-24T03:30:38.477Z,85.10
2018-03-24T03:33:07.292Z,85.11
2018-03-24T03:35:35.800Z,85.12
2018-03-24T03:38:03.318Z,85.13
2018-03-24T03:40:30.793Z,85.16
2018-03-24T03:42:58.264Z,85.18
2018-03-24T03:45:26.750Z,85.20
2018-03-24T03:47:55.055Z,85.23
2018-03-24T03:50:25.608Z,85.26
2018-03-24T03:52:53.075Z,85.33
2018-03-24T03:55:21.442Z,85.34
2018-03-24T03:57:48.913Z,85.39
2018-03-24T04:00:16.425Z,85.49
2018-03-24T04:02:45.644Z,85.50
2018-03-24T04:05:18.335Z,85.52
2018-03-24T04:07:50.213Z,85.60
2018-03-24T04:10:18.595Z,85.67
2018-03-24T04:12:46.071Z,85.68
2018-03-24T04:15:13.580Z,85.68
2018-03-24T04:17:41.061Z,85.73
2018-03-24T04:20:10.348Z,85.75
2018-03-24T04:22:41.792Z,85.78
2018-03-24T04:25:10.915Z,85.80
2018-03-24T04:27:39.024Z,85.83
2018-03-24T04:30:06.516Z,85.87
2018-03-24T04:32:34.000Z,85.88
2018-03-24T04:35:01.501Z,85.98
2018-03-24T04:37:31.395Z,86.02
2018-03-24T04:39:59.328Z,86.06
2018-03-24T04:42:29.543Z,86.11
2018-03-24T04:44:59.519Z,86.16
2018-03-24T04:47:27.045Z,86.23
2018-03-24T04:49:54.528Z,86.27
2018-03-24T04:52:22.007Z,86.25
2018-03-24T04:54:54.533Z,86.22
2018-03-24T04:57:23.480Z,86.26
2018-03-24T04:59:51.200Z,86.27
2018-03-24T05:02:21.523Z,86.26
2018-03-24T05:04:49.016Z,86.25
2018-03-24T05:07:16.491Z,86.25
2018-03-24T05:09:44.031Z,86.26
2018-03-24T05:12:11.556Z,86.26
2018-03-24T05:14:39.076Z,86.25
2018-03-24T05:17:11.325Z,86.24
2018-03-24T05:19:39.449Z,86.21
2018-03-24T05:22:06.968Z,86.21
2018-03-24T05:24:34.447Z,86.20
2018-03-24T05:27:01.952Z,86.20
2018-03-24T05:29:33.935Z,86.21
2018-03-24T05:32:05.900Z,86.20
2018-03-24T05:34:35.732Z,86.20
2018-03-24T05:37:06.252Z,86.19
2018-03-24T05:39:33.748Z,86.20
2018-03-24T05:42:01.269Z,86.17
2018-03-24T05:44:28.786Z,86.23
2018-03-24T05:46:58.124Z,86.24
2018-03-24T05:49:31.076Z,86.29
2018-03-24T05:51:59.048Z,86.27
2018-03-24T05:54:27.570Z,86.30
2018-03-24T05:56:55.062Z,86.31
2018-03-24T05:59:22.536Z,86.30
2018-03-24T06:01:50.037Z,86.27
2018-03-24T06:04:22.573Z,86.27
2018-03-24T06:06:51.580Z,86.29
2018-03-24T06:09:19.100Z,86.35
2018-03-24T06:11:49.872Z,86.39
2018-03-24T06:14:17.332Z,86.38
2018-03-24T06:16:44.817Z,86.37
2018-03-24T06:19:12.290Z,86.39
2018-03-24T06:21:41.511Z,86.37
2018-03-24T06:24:11.362Z,86.39
2018-03-24T06:26:39.447Z,86.39
2018-03-24T06:29:09.515Z,86.38
2018-03-24T06:31:42.577Z,86.37
2018-03-24T06:34:10.123Z,86.39
2018-03-24T06:36:37.624Z,86.37
2018-03-24T06:39:07.547Z,86.38
2018-03-24T06:41:35.184Z,86.43
2018-03-24T06:44:05.614Z,86.41
2018-03-24T06:46:35.500Z,86.41
2018-03-24T06:49:02.968Z,86.41
2018-03-24T06:54:04.424Z,86.39
2018-03-24T06:56:35.005Z,86.39
2018-03-24T06:59:03.605Z,86.40
2018-03-24T07:01:31.104Z,86.41
2018-03-24T07:03:59.756Z,86.41
2018-03-24T07:06:30.053Z,86.39
2018-03-24T07:08:57.545Z,86.41
2018-03-24T07:11:25.032Z,86.41
2018-03-24T07:13:54.719Z,86.41
2018-03-24T07:16:23.255Z,86.43
2018-03-24T07:18:54.757Z,86.45
2018-03-24T07:21:22.258Z,86.42
2018-03-24T07:23:49.747Z,86.41
2018-03-24T07:26:17.221Z,86.41
2018-03-24T07:28:44.728Z,86.45
2018-03-24T07:31:14.036Z,86.40
2018-03-24T07:33:46.048Z,86.39
2018-03-24T07:36:18.256Z,86.36
2018-03-24T07:38:45.752Z,86.34
2018-03-24T07:41:13.245Z,86.34
2018-03-24T07:43:40.976Z,86.36
2018-03-24T07:46:08.449Z,86.38
2018-03-24T07:48:39.570Z,86.41
2018-03-24T07:51:07.759Z,86.39
2018-03-24T07:53:44.979Z,86.33
2018-03-24T07:56:12.439Z,86.28
2018-03-24T07:58:39.992Z,86.24
2018-03-24T08:01:07.518Z,86.23
2018-03-24T08:03:35.064Z,86.21
2018-03-24T08:08:42.321Z,86.18
2018-03-24T08:11:09.881Z,86.12
2018-03-24T08:13:37.380Z,86.14
2018-03-24T08:16:04.912Z,86.15
2018-03-24T08:18:32.445Z,86.14
2018-03-24T08:20:59.972Z,86.11
2018-03-24T08:23:27.580Z,86.07
2018-03-24T08:29:03.992Z,86.03
2018-03-24T08:31:31.475Z,85.97
2018-03-24T08:33:59.000Z,85.94
2018-03-24T08:36:26.499Z,85.80
2018-03-24T08:38:53.981Z,85.75
2018-03-24T08:50:10.285Z,85.48
2018-03-24T08:52:37.760Z,85.49
2018-03-24T08:55:05.257Z,85.37
2018-03-24T09:05:34.931Z,85.22
2018-03-24T09:08:02.470Z,85.18
2018-03-24T09:10:29.981Z,85.10
2018-03-24T09:12:57.568Z,85.14
2018-03-24T09:23:32.412Z,84.66
2018-03-24T09:25:59.948Z,84.50
2018-03-24T09:28:27.455Z,84.33
2018-03-24T09:30:55.011Z,84.15
2018-03-24T09:33:22.561Z,84.08
2018-03-24T09:35:50.114Z,84.00
2018-03-24T09:38:17.731Z,83.94
2018-03-24T09:40:45.274Z,83.85
2018-03-24T09:43:12.774Z,83.77
2018-03-24T09:45:40.277Z,83.36
2018-03-24T09:50:59.564Z,83.26
2018-03-24T09:53:27.120Z,83.15
2018-03-24T09:59:17.280Z,82.21
2018-03-24T10:01:44.789Z,82.31
2018-03-24T10:04:12.281Z,82.08
2018-03-24T10:09:25.289Z,82.30
2018-03-24T10:14:55.407Z,82.02
2018-03-24T10:17:22.954Z,81.83
2018-03-24T10:19:50.544Z,81.60
2018-03-24T10:31:32.699Z,81.14
2018-03-24T10:34:02.151Z,81.15
2018-03-24T10:36:29.696Z,80.90
2018-03-24T10:38:57.267Z,80.90
2018-03-24T10:50:34.041Z,79.50
2018-03-24T10:53:01.597Z,79.12
2018-03-24T10:55:29.207Z,78.96
2018-03-24T11:07:05.473Z,77.74
2018-03-24T11:09:33.151Z,77.84
2018-03-24T11:12:00.726Z,77.69
2018-03-24T11:23:36.947Z,76.82
2018-03-24T11:26:04.539Z,76.58
2018-03-24T11:28:32.148Z,76.65
2018-03-24T11:40:08.633Z,76.07
2018-03-24T11:42:36.209Z,75.60
2018-03-24T11:45:03.778Z,75.45
2018-03-24T11:56:45.756Z,74.50
2018-03-24T11:59:13.466Z,74.40
2018-03-24T12:01:41.013Z,74.25
2018-03-24T12:04:08.545Z,73.95
2018-03-24T12:15:44.785Z,72.69
2018-03-24T12:18:12.362Z,72.82
2018-03-24T12:20:39.948Z,72.55
2018-03-24T12:32:15.901Z,71.53
2018-03-24T12:34:43.413Z,71.21
2018-03-24T12:37:11.002Z,71.05
2018-03-24T12:48:47.186Z,70.51
2018-03-24T12:51:14.740Z,70.16
2018-03-24T12:53:42.300Z,70.14
2018-03-24T13:05:18.645Z,69.93
2018-03-24T13:07:46.201Z,70.02
2018-03-24T13:10:13.851Z,70.13
2018-03-24T13:12:41.450Z,70.19
2018-03-24T13:24:17.567Z,69.74
2018-03-24T13:26:45.121Z,69.70
2018-03-24T13:29:12.678Z,69.90
2018-03-24T13:40:48.937Z,69.99
2018-03-24T13:43:16.535Z,70.00
2018-03-24T13:45:44.100Z,70.08
2018-03-24T13:57:20.605Z,70.46
2018-03-24T13:59:48.171Z,70.46
2018-03-24T14:02:15.725Z,70.49
2018-03-24T14:13:51.836Z,70.51
2018-03-24T14:16:20.377Z,70.53
2018-03-24T14:18:47.898Z,70.52
2018-03-24T14:21:15.447Z,70.51
2018-03-24T14:30:23.254Z,70.51
2018-03-24T14:32:50.802Z,70.57
2018-03-24T14:35:18.413Z,70.60
2018-03-24T14:37:45.977Z,70.54
2018-03-24T14:49:22.796Z,70.15
2018-03-24T14:51:50.360Z,70.15
2018-03-24T14:54:17.913Z,69.99
2018-03-24T15:05:54.589Z,69.86
2018-03-24T15:08:22.117Z,69.90
2018-03-24T15:10:49.677Z,69.99
2018-03-24T15:22:25.869Z,70.04
2018-03-24T15:24:53.424Z,69.96
2018-03-24T15:27:20.993Z,69.96
2018-03-24T15:38:47.441Z,69.73
2018-03-24T15:41:14.976Z,69.49
2018-03-24T15:43:43.069Z,69.39
2018-03-24T15:46:10.616Z,69.44
2018-03-24T15:57:46.973Z,69.56
2018-03-24T16:00:14.513Z,69.64
2018-03-24T16:02:42.093Z,69.71
2018-03-24T16:14:17.937Z,69.65
2018-03-24T16:16:45.481Z,69.71
2018-03-24T16:19:13.033Z,69.74
2018-03-24T16:30:49.893Z,69.75
2018-03-24T16:33:17.473Z,69.61
2018-03-24T16:35:45.200Z,69.47
2018-03-24T16:47:21.359Z,69.51
2018-03-24T16:49:49.005Z,69.66
2018-03-24T16:52:16.548Z,69.66
2018-03-24T17:04:02.227Z,70.08
2018-03-24T17:06:31.020Z,70.16
2018-03-24T17:08:59.057Z,70.24
2018-03-24T17:23:34.675Z,70.76
2018-03-24T17:26:02.285Z,70.80
2018-03-24T17:28:33.696Z,70.90
2018-03-24T17:40:10.188Z,71.36
2018-03-24T17:42:37.774Z,71.40
2018-03-24T17:45:05.473Z,71.42
2018-03-24T17:56:41.469Z,71.56
2018-03-24T17:59:16.379Z,71.59
2018-03-24T18:01:44.003Z,71.66
2018-03-24T18:13:19.666Z,71.79
2018-03-24T18:15:47.225Z,71.85
2018-03-24T18:18:14.920Z,71.86
2018-03-24T18:20:42.468Z,71.89
2018-03-24T18:23:20.861Z,71.94
2018-03-24T18:25:51.213Z,71.96
2018-03-24T18:28:30.104Z,72.01
2018-03-24T18:30:57.660Z,72.03
2018-03-24T18:33:25.168Z,72.07
2018-03-24T18:35:52.656Z,72.11
2018-03-24T18:38:26.085Z,72.19
2018-03-24T18:40:55.424Z,72.28
2018-03-24T18:48:49.100Z,72.44
2018-03-24T18:51:16.611Z,72.49
2018-03-24T18:53:44.098Z,72.61
2018-03-24T18:56:11.603Z,72.66
2018-03-24T19:06:27.249Z,72.86
2018-03-24T19:08:54.756Z,72.91
2018-03-24T19:11:22.244Z,72.94
2018-03-24T19:13:58.557Z,72.99
2018-03-24T19:24:26.688Z,73.28
2018-03-24T19:26:54.211Z,73.34
2018-03-24T19:29:21.772Z,73.40
2018-03-24T19:31:51.696Z,73.44
2018-03-24T19:34:19.934Z,73.48
2018-03-24T19:36:47.727Z,73.52
2018-03-24T19:39:15.196Z,73.57
2018-03-24T19:41:42.685Z,73.66
2018-03-24T19:44:10.159Z,73.73
2018-03-24T19:46:37.693Z,73.74
2018-03-24T19:49:06.427Z,73.78
2018-03-24T19:51:38.690Z,73.85
2018-03-24T19:54:07.211Z,73.91
2018-03-24T19:56:35.548Z,73.95
2018-03-24T19:59:03.056Z,73.95
2018-03-24T20:01:30.529Z,74.00
2018-03-24T20:03:58.031Z,74.07
2018-03-24T20:06:27.813Z,74.15
2018-03-24T20:08:55.785Z,74.20
2018-03-24T20:11:26.080Z,74.28
2018-03-24T20:13:56.077Z,74.31
2018-03-24T20:16:23.599Z,74.35
2018-03-24T20:18:51.072Z,74.44
2018-03-24T20:21:18.576Z,74.53
2018-03-24T20:23:46.850Z,74.56
2018-03-24T20:26:15.249Z,74.58
2018-03-24T20:28:43.559Z,74.64
2018-03-24T20:31:12.134Z,74.70
2018-03-24T20:33:41.048Z,74.76
2018-03-24T20:36:08.532Z,74.77
2018-03-24T20:38:36.024Z,74.80
2018-03-24T20:41:03.508Z,74.85
2018-03-24T20:43:31.411Z,74.94
2018-03-24T20:46:00.038Z,74.93
2018-03-24T20:48:27.556Z,75.01
2018-03-24T20:50:55.035Z,75.03
2018-03-24T20:53:22.508Z,75.08
2018-03-24T20:55:50.004Z,75.18
2018-03-24T20:58:20.045Z,75.25
2018-03-24T21:00:47.581Z,75.24
2018-03-24T21:03:15.805Z,75.27
2018-03-24T21:05:43.440Z,75.39
2018-03-24T21:08:10.944Z,75.59
2018-03-24T21:10:38.464Z,75.66
2018-03-24T21:13:05.963Z,75.69
2018-03-24T21:15:38.249Z,75.71
2018-03-24T21:18:06.986Z,75.78
2018-03-24T21:20:36.146Z,75.91
2018-03-24T21:23:09.775Z,75.93
2018-03-24T21:25:37.279Z,75.96
2018-03-24T21:28:04.767Z,75.94
2018-03-24T21:30:32.275Z,76.04
2018-03-24T21:32:59.782Z,76.06
2018-03-24T21:35:28.059Z,76.03
2018-03-24T21:37:58.052Z,76.00
2018-03-24T21:40:28.046Z,76.00
2018-03-24T21:42:55.544Z,76.02
2018-03-24T21:45:23.075Z,76.04
2018-03-24T21:47:50.556Z,76.09
2018-03-24T21:50:22.781Z,76.08
2018-03-24T21:52:54.267Z,76.09
2018-03-24T21:55:23.368Z,76.12
2018-03-24T21:57:51.956Z,76.15
2018-03-24T22:00:19.448Z,76.15
2018-03-24T22:02:46.944Z,76.20
2018-03-24T22:05:14.434Z,76.24
2018-03-24T22:07:46.965Z,76.23
2018-03-24T22:10:15.626Z,76.20
2018-03-24T22:12:47.037Z,76.18
2018-03-24T22:15:18.003Z,76.17
2018-03-24T22:17:45.508Z,76.16
2018-03-24T22:20:13.016Z,76.15
2018-03-24T22:22:40.528Z,76.14
2018-03-24T22:25:08.012Z,76.17
2018-03-24T22:27:35.506Z,76.16
2018-03-24T22:30:06.010Z,76.15
2018-03-24T22:32:36.065Z,76.18
2018-03-24T22:35:03.556Z,76.14
2018-03-24T22:37:31.038Z,76.17
2018-03-24T22:39:58.542Z,76.21
2018-03-24T22:42:30.390Z,76.20
2018-03-24T22:45:02.284Z,76.24
2018-03-24T22:47:30.832Z,76.26
2018-03-24T22:50:03.076Z,76.27
2018-03-24T22:52:30.575Z,76.32
2018-03-24T22:54:58.077Z,76.36
2018-03-24T22:57:25.614Z,76.39
2018-03-24T22:59:55.088Z,76.41
2018-03-24T23:02:26.002Z,76.45
2018-03-24T23:04:56.041Z,76.46
2018-03-24T23:07:23.554Z,76.47
2018-03-24T23:09:51.038Z,76.48
2018-03-24T23:12:18.544Z,76.57
2018-03-24T23:14:46.024Z,76.53
2018-03-24T23:17:15.937Z,76.55
2018-03-24T23:19:43.736Z,76.57
2018-03-24T23:22:14.160Z,76.58
2018-03-24T23:24:44.057Z,76.59
2018-03-24T23:27:11.560Z,76.65
2018-03-24T23:29:39.078Z,76.68
2018-03-24T23:32:06.567Z,76.69
2018-03-24T23:34:34.924Z,76.74
2018-03-24T23:37:06.736Z,76.76
2018-03-24T23:39:36.008Z,76.81
2018-03-24T23:42:04.077Z,76.93
2018-03-24T23:44:31.556Z,76.99
2018-03-24T23:46:59.048Z,77.06
2018-03-24T23:49:26.527Z,77.14
2018-03-24T23:51:54.620Z,77.17
2018-03-24T23:54:26.807Z,77.19
2018-03-24T23:56:55.318Z,77.19
2018-03-24T23:59:23.868Z,77.21
